createdAt,value
2018-09-28T00:00:22.689Z,81.77
2018-09-28T00:02:49.632Z,82.27
2018-09-28T00:05:16.559Z,82.00
2018-09-28T00:07:43.481Z,81.92
2018-09-28T00:10:10.439Z,82.14
2018-09-28T00:12:37.430Z,82.12
2018-09-28T00:15:04.464Z,82.70
2018-09-28T00:17:31.401Z,82.46
2018-09-28T00:19:58.348Z,82.51
2018-09-28T00:22:25.281Z,82.46
2018-09-28T00:24:52.213Z,82.53
2018-09-28T00:27:19.164Z,83.15
2018-09-28T00:29:46.113Z,83.27
2018-09-28T00:32:13.038Z,83.11
2018-09-28T00:34:39.966Z,83.34
2018-09-28T00:37:06.892Z,83.66
2018-09-28T00:39:33.803Z,83.63
2018-09-28T00:42:00.754Z,83.89
2018-09-28T00:44:27.669Z,83.96
2018-09-28T00:46:54.597Z,84.05
2018-09-28T00:49:21.517Z,84.59
2018-09-28T00:51:48.449Z,84.38
2018-09-28T00:54:15.381Z,84.34
2018-09-28T00:56:42.289Z,84.31
2018-09-28T00:59:09.225Z,84.09
2018-09-28T01:01:36.183Z,84.09
2018-09-28T01:04:03.128Z,84.54
2018-09-28T01:06:30.053Z,84.27
2018-09-28T01:08:56.991Z,84.09
2018-09-28T01:11:23.956Z,84.49
2018-09-28T01:13:51.262Z,84.16
2018-09-28T01:16:18.217Z,84.38
2018-09-28T01:18:45.150Z,84.52
2018-09-28T01:21:12.093Z,84.50
2018-09-28T01:23:39.032Z,84.54
2018-09-28T01:26:05.986Z,84.48
2018-09-28T01:28:32.900Z,83.60
2018-09-28T01:30:59.844Z,82.74
2018-09-28T01:33:26.802Z,82.27
2018-09-28T01:35:53.784Z,81.96
2018-09-28T01:38:20.750Z,81.46
2018-09-28T01:40:47.725Z,81.34
2018-09-28T01:43:14.685Z,81.02
2018-09-28T01:45:41.654Z,79.45
2018-09-28T01:48:08.605Z,78.78
2018-09-28T01:50:35.556Z,77.52
2018-09-28T01:53:02.514Z,77.58
2018-09-28T01:55:29.453Z,76.29
2018-09-28T01:57:56.412Z,76.47
2018-09-28T02:00:23.351Z,75.71
2018-09-28T02:02:50.310Z,76.05
2018-09-28T02:05:17.244Z,76.09
2018-09-28T02:07:44.245Z,74.64
2018-09-28T02:10:11.181Z,75.52
2018-09-28T02:12:38.204Z,74.13
2018-09-28T02:15:05.141Z,73.62
2018-09-28T02:17:32.105Z,74.25
2018-09-28T02:19:59.043Z,74.06
2018-09-28T02:22:26.009Z,74.24
2018-09-28T02:24:52.949Z,73.44
2018-09-28T02:27:19.888Z,73.16
2018-09-28T02:29:46.836Z,72.84
2018-09-28T02:32:13.774Z,72.93
2018-09-28T02:34:40.708Z,72.26
2018-09-28T02:37:07.736Z,72.59
2018-09-28T02:39:34.659Z,71.35
2018-09-28T02:42:01.606Z,71.61
2018-09-28T02:44:28.539Z,70.66
2018-09-28T02:46:55.485Z,70.65
2018-09-28T02:49:22.410Z,70.91
2018-09-28T02:51:49.363Z,71.60
2018-09-28T02:54:16.298Z,71.71
2018-09-28T02:56:43.280Z,71.95
2018-09-28T02:59:10.192Z,72.23
2018-09-28T03:01:37.157Z,71.98
2018-09-28T03:04:04.109Z,72.20
2018-09-28T03:06:31.041Z,72.59
2018-09-28T03:08:57.962Z,71.30
2018-09-28T03:11:24.886Z,71.49
2018-09-28T03:13:51.861Z,72.08
2018-09-28T03:16:18.789Z,72.24
2018-09-28T03:18:45.712Z,72.28
2018-09-28T03:21:12.656Z,72.20
2018-09-28T03:23:39.606Z,72.50
2018-09-28T03:26:07.326Z,72.61
2018-09-28T03:28:34.294Z,72.89
2018-09-28T03:31:01.256Z,73.28
2018-09-28T03:33:28.202Z,73.01
2018-09-28T03:35:55.134Z,73.70
2018-09-28T03:38:22.054Z,74.14
2018-09-28T03:40:48.977Z,74.41
2018-09-28T03:43:15.941Z,74.74
2018-09-28T03:45:42.891Z,74.47
2018-09-28T03:48:09.842Z,75.12
2018-09-28T03:50:36.845Z,75.72
2018-09-28T03:53:03.820Z,75.90
2018-09-28T03:55:30.791Z,75.74
2018-09-28T03:57:57.769Z,75.70
2018-09-28T04:00:24.710Z,76.12
2018-09-28T04:02:51.729Z,77.24
2018-09-28T04:05:18.637Z,76.54
2018-09-28T04:07:45.593Z,76.20
2018-09-28T04:10:12.525Z,76.75
2018-09-28T04:12:39.550Z,76.87
2018-09-28T04:15:06.647Z,76.14
2018-09-28T04:17:33.654Z,76.94
2018-09-28T04:20:00.634Z,76.79
2018-09-28T04:22:27.615Z,77.14
2018-09-28T04:24:54.589Z,76.59
2018-09-28T04:27:21.544Z,76.75
2018-09-28T04:29:48.531Z,76.62
2018-09-28T04:32:15.487Z,76.84
2018-09-28T04:34:42.458Z,76.92
2018-09-28T04:37:09.402Z,76.71
2018-09-28T04:39:36.368Z,77.69
2018-09-28T04:42:03.317Z,77.13
2018-09-28T04:44:30.301Z,76.52
2018-09-28T04:46:57.286Z,76.77
2018-09-28T04:49:24.266Z,76.71
2018-09-28T04:51:51.205Z,77.04
2018-09-28T04:54:18.158Z,77.56
2018-09-28T04:56:45.102Z,77.47
2018-09-28T04:59:12.061Z,78.13
2018-09-28T05:01:38.993Z,77.55
2018-09-28T05:04:06.243Z,77.80
2018-09-28T05:06:33.189Z,78.28
2018-09-28T05:09:00.124Z,78.18
2018-09-28T05:11:27.079Z,78.82
2018-09-28T05:13:54.050Z,78.35
2018-09-28T05:16:20.993Z,78.75
2018-09-28T05:18:47.967Z,79.53
2018-09-28T05:21:14.973Z,79.38
2018-09-28T05:23:41.965Z,78.69
2018-09-28T05:26:08.909Z,78.63
2018-09-28T05:28:35.874Z,79.66
2018-09-28T05:31:02.844Z,79.22
2018-09-28T05:33:29.826Z,78.95
2018-09-28T05:35:56.776Z,78.56
2018-09-28T05:38:23.745Z,79.39
2018-09-28T05:40:50.689Z,79.59
2018-09-28T05:43:23.091Z,79.52
2018-09-28T05:45:50.373Z,78.33
2018-09-28T05:48:17.350Z,79.11
2018-09-28T05:50:44.306Z,79.17
2018-09-28T05:53:11.253Z,78.26
2018-09-28T05:55:38.202Z,78.62
2018-09-28T05:58:11.149Z,78.23
2018-09-28T06:00:43.823Z,78.70
2018-09-28T06:03:15.546Z,78.05
2018-09-28T06:05:45.855Z,77.93
2018-09-28T06:08:21.505Z,78.25
2018-09-28T06:10:48.967Z,78.54
2018-09-28T06:13:16.029Z,77.78
2018-09-28T06:15:43.009Z,77.95
2018-09-28T06:18:09.945Z,77.70
2018-09-28T06:20:36.890Z,78.29
2018-09-28T06:23:04.055Z,78.01
2018-09-28T06:25:31.030Z,77.08
2018-09-28T06:27:57.969Z,76.62
2018-09-28T06:30:24.941Z,76.80
2018-09-28T06:32:51.905Z,77.61
2018-09-28T06:35:18.868Z,77.24
2018-09-28T06:37:45.870Z,76.94
2018-09-28T06:40:12.841Z,76.23
2018-09-28T06:42:39.810Z,76.48
2018-09-28T06:45:06.797Z,76.24
2018-09-28T06:47:33.773Z,75.88
2018-09-28T06:50:00.746Z,76.86
2018-09-28T06:52:28.148Z,76.62
2018-09-28T06:54:55.099Z,75.96
2018-09-28T06:57:22.040Z,76.72
2018-09-28T06:59:49.074Z,76.40
2018-09-28T07:02:15.998Z,75.64
2018-09-28T07:04:42.985Z,74.54
2018-09-28T07:07:09.928Z,74.11
2018-09-28T07:09:36.872Z,74.53
2018-09-28T07:12:03.852Z,74.11
2018-09-28T07:14:30.824Z,73.96
2018-09-28T07:16:57.776Z,74.47
2018-09-28T07:19:24.725Z,73.63
2018-09-28T07:21:51.697Z,73.32
2018-09-28T07:24:18.724Z,72.18
2018-09-28T07:26:45.597Z,71.92
2018-09-28T07:29:12.557Z,71.88
2018-09-28T07:31:39.525Z,71.58
2018-09-28T07:34:06.562Z,71.25
2018-09-28T07:36:33.669Z,70.69
2018-09-28T07:39:00.497Z,70.09
2018-09-28T07:41:27.487Z,70.20
2018-09-28T07:43:54.449Z,71.46
2018-09-28T07:46:21.391Z,71.00
2018-09-28T07:48:48.337Z,69.56
2018-09-28T07:51:15.333Z,68.76
2018-09-28T07:53:42.280Z,67.50
2018-09-28T07:56:09.223Z,67.70
2018-09-28T07:58:36.145Z,67.49
2018-09-28T08:01:03.119Z,67.41
2018-09-28T08:03:30.053Z,65.71
2018-09-28T08:05:58.613Z,65.95
2018-09-28T08:08:25.575Z,67.17
2018-09-28T08:10:52.539Z,66.68
2018-09-28T08:13:19.763Z,65.79
2018-09-28T08:15:46.945Z,65.39
2018-09-28T08:18:13.901Z,65.71
2018-09-28T08:20:40.850Z,66.20
2018-09-28T08:23:07.797Z,65.41
2018-09-28T08:25:34.773Z,65.39
2018-09-28T08:28:01.709Z,64.72
2018-09-28T08:30:28.698Z,62.40
2018-09-28T08:32:55.658Z,62.44
2018-09-28T08:35:22.619Z,62.49
2018-09-28T08:37:49.554Z,62.51
2018-09-28T08:40:16.500Z,63.35
2018-09-28T08:42:43.434Z,63.21
2018-09-28T08:45:10.432Z,63.15
2018-09-28T08:47:37.377Z,62.37
2018-09-28T08:50:04.349Z,63.22
2018-09-28T08:52:31.313Z,62.93
2018-09-28T08:54:58.237Z,63.04
2018-09-28T08:57:25.206Z,62.67
2018-09-28T08:59:52.158Z,62.62
2018-09-28T09:02:19.264Z,60.38
2018-09-28T09:04:46.121Z,59.55
2018-09-28T09:07:13.099Z,59.41
2018-09-28T09:09:40.043Z,60.10
2018-09-28T09:12:07.014Z,58.19
2018-09-28T09:14:33.958Z,58.24
2018-09-28T09:17:00.953Z,58.28
2018-09-28T09:19:27.939Z,58.66
2018-09-28T09:21:54.910Z,59.14
2018-09-28T09:24:21.845Z,58.76
2018-09-28T09:26:48.809Z,56.61
2018-09-28T09:29:15.813Z,57.17
2018-09-28T09:31:43.077Z,56.81
2018-09-28T09:34:10.050Z,55.89
2018-09-28T09:36:37.123Z,55.03
2018-09-28T09:39:06.633Z,55.97
2018-09-28T09:41:33.562Z,55.26
2018-09-28T09:44:00.490Z,55.87
2018-09-28T09:46:27.480Z,54.66
2018-09-28T09:48:54.423Z,54.76
2018-09-28T09:51:21.366Z,54.10
2018-09-28T09:53:48.345Z,53.39
2018-09-28T09:56:15.293Z,52.84
2018-09-28T09:58:42.230Z,54.12
2018-09-28T10:01:13.775Z,53.59
2018-09-28T10:03:46.438Z,54.45
2018-09-28T10:06:13.369Z,53.72
2018-09-28T10:08:40.320Z,53.11
2018-09-28T10:11:07.236Z,53.91
2018-09-28T10:13:34.188Z,53.37
2018-09-28T10:16:01.140Z,51.94
2018-09-28T10:18:28.080Z,52.13
2018-09-28T10:20:55.068Z,53.81
2018-09-28T10:23:21.993Z,51.75
2018-09-28T10:25:48.940Z,53.37
2018-09-28T10:28:15.989Z,55.05
2018-09-28T10:30:42.829Z,53.78
2018-09-28T10:33:09.761Z,51.88
2018-09-28T10:35:36.706Z,49.29
2018-09-28T10:38:03.634Z,49.37
2018-09-28T10:40:30.624Z,47.99
2018-09-28T10:42:57.562Z,49.50
2018-09-28T10:45:24.550Z,50.48
2018-09-28T10:47:51.446Z,49.13
2018-09-28T10:50:18.422Z,49.67
2018-09-28T10:52:45.435Z,48.23
2018-09-28T10:55:12.361Z,46.97
2018-09-28T10:57:39.297Z,47.80
2018-09-28T11:00:06.302Z,48.09
2018-09-28T11:02:33.263Z,47.56
2018-09-28T11:05:00.200Z,48.84
2018-09-28T11:07:27.153Z,50.46
2018-09-28T11:09:54.097Z,50.65
2018-09-28T11:12:21.097Z,51.03
2018-09-28T11:14:47.997Z,53.29
2018-09-28T11:17:15.042Z,54.95
2018-09-28T11:19:41.957Z,53.60
2018-09-28T11:22:08.898Z,51.37
2018-09-28T11:24:35.901Z,49.30
2018-09-28T11:27:02.850Z,49.60
2018-09-28T11:29:29.854Z,49.31
2018-09-28T11:31:56.798Z,49.43
2018-09-28T11:34:23.768Z,51.36
2018-09-28T11:36:51.409Z,53.03
2018-09-28T11:39:18.414Z,53.46
2018-09-28T11:41:45.739Z,51.91
2018-09-28T11:44:12.670Z,52.75
2018-09-28T11:46:39.621Z,50.81
2018-09-28T11:49:06.629Z,49.85
2018-09-28T11:51:33.608Z,48.83
2018-09-28T11:54:00.498Z,46.65
2018-09-28T11:56:27.433Z,47.56
2018-09-28T11:58:54.373Z,46.51
2018-09-28T12:01:21.366Z,47.03
2018-09-28T12:03:48.407Z,47.97
2018-09-28T12:06:15.275Z,48.26
2018-09-28T12:08:42.219Z,48.39
2018-09-28T12:11:09.182Z,53.20
2018-09-28T12:13:36.159Z,64.23
2018-09-28T12:16:03.128Z,66.65
2018-09-28T12:18:30.080Z,66.00
2018-09-28T12:20:57.030Z,67.16
2018-09-28T12:23:24.014Z,68.44
2018-09-28T12:25:50.957Z,68.38
2018-09-28T12:28:17.893Z,67.19
2018-09-28T12:30:44.859Z,66.78
2018-09-28T12:33:11.832Z,64.52
2018-09-28T12:35:38.900Z,63.43
2018-09-28T12:38:05.797Z,61.17
2018-09-28T12:40:32.729Z,60.40
2018-09-28T12:42:59.674Z,59.13
2018-09-28T12:45:26.764Z,57.89
2018-09-28T12:47:53.617Z,58.78
2018-09-28T12:50:20.587Z,57.00
2018-09-28T12:52:47.518Z,55.99
2018-09-28T12:55:14.458Z,56.26
2018-09-28T12:57:41.393Z,54.60
2018-09-28T13:00:08.382Z,54.54
2018-09-28T13:02:35.306Z,56.67
2018-09-28T13:05:02.245Z,57.92
2018-09-28T13:07:29.167Z,59.40
2018-09-28T13:09:56.102Z,59.30
2018-09-28T13:12:23.084Z,59.52
2018-09-28T13:14:50.048Z,57.73
2018-09-28T13:17:16.930Z,56.52
2018-09-28T13:19:43.858Z,55.74
2018-09-28T13:22:10.858Z,56.36
2018-09-28T13:24:37.862Z,56.55
2018-09-28T13:27:04.842Z,55.26
2018-09-28T13:29:31.781Z,56.15
2018-09-28T13:31:58.735Z,55.74
2018-09-28T13:34:25.674Z,55.45
2018-09-28T13:36:52.606Z,56.29
2018-09-28T13:39:19.577Z,56.20
2018-09-28T13:41:46.529Z,56.22
2018-09-28T13:44:13.507Z,56.84
2018-09-28T13:46:40.473Z,55.15
2018-09-28T13:49:07.392Z,55.49
2018-09-28T13:51:34.378Z,51.73
2018-09-28T13:54:01.353Z,51.74
2018-09-28T13:56:28.417Z,51.24
2018-09-28T13:58:55.337Z,50.09
2018-09-28T14:01:22.344Z,49.80
2018-09-28T14:03:49.310Z,50.64
2018-09-28T14:06:16.339Z,51.26
2018-09-28T14:08:43.403Z,51.54
2018-09-28T14:11:10.274Z,50.26
2018-09-28T14:13:37.233Z,50.17
2018-09-28T14:16:04.171Z,49.63
2018-09-28T14:18:34.250Z,48.89
2018-09-28T14:21:01.219Z,47.10
2018-09-28T14:23:28.207Z,46.13
2018-09-28T14:25:55.139Z,45.90
2018-09-28T14:28:22.079Z,45.88
2018-09-28T14:30:49.245Z,44.86
2018-09-28T14:33:16.138Z,43.50
2018-09-28T14:35:43.112Z,44.73
2018-09-28T14:38:10.053Z,46.26
2018-09-28T14:40:37.018Z,47.64
2018-09-28T14:43:04.041Z,47.69
2018-09-28T14:45:31.010Z,48.21
2018-09-28T14:47:57.961Z,48.26
2018-09-28T14:50:24.997Z,47.71
2018-09-28T14:52:52.238Z,48.80
2018-09-28T14:55:19.178Z,48.69
2018-09-28T14:57:46.090Z,48.84
2018-09-28T15:00:13.073Z,47.54
2018-09-28T15:02:40.096Z,48.84
2018-09-28T15:05:07.219Z,49.11
2018-09-28T15:07:34.232Z,49.33
2018-09-28T15:10:01.150Z,50.08
2018-09-28T15:12:28.122Z,49.44
2018-09-28T15:14:55.194Z,49.73
2018-09-28T15:17:22.150Z,50.24
2018-09-28T15:19:49.101Z,50.88
2018-09-28T15:22:16.041Z,51.64
2018-09-28T15:24:42.973Z,52.27
2018-09-28T15:27:09.934Z,52.18
2018-09-28T15:29:36.928Z,52.59
2018-09-28T15:32:03.886Z,52.69
2018-09-28T15:34:30.851Z,53.10
2018-09-28T15:36:57.824Z,53.29
2018-09-28T15:39:24.761Z,53.04
2018-09-28T15:41:51.807Z,51.87
2018-09-28T15:44:18.793Z,51.23
2018-09-28T15:46:45.758Z,50.35
2018-09-28T15:49:12.701Z,51.01
2018-09-28T15:51:39.657Z,50.88
2018-09-28T15:54:06.920Z,51.83
2018-09-28T15:56:33.889Z,52.38
2018-09-28T15:59:00.817Z,52.02
2018-09-28T16:01:27.758Z,53.01
2018-09-28T16:03:54.695Z,53.03
2018-09-28T16:06:21.657Z,53.59
2018-09-28T16:08:48.602Z,54.21
2018-09-28T16:11:15.576Z,55.00
2018-09-28T16:13:49.421Z,56.02
2018-09-28T16:16:16.397Z,56.18
2018-09-28T16:18:43.364Z,56.47
2018-09-28T16:21:10.335Z,56.91
2018-09-28T16:23:37.702Z,57.08
2018-09-28T16:26:04.890Z,57.25
2018-09-28T16:28:31.873Z,57.60
2018-09-28T16:30:58.869Z,58.22
2018-09-28T16:33:25.801Z,58.97
2018-09-28T16:35:52.813Z,59.08
2018-09-28T16:38:22.471Z,59.56
2018-09-28T16:40:49.553Z,60.52
2018-09-28T16:43:16.508Z,60.88
2018-09-28T16:45:43.498Z,61.53
2018-09-28T16:48:10.483Z,62.25
2018-09-28T16:50:37.440Z,61.27
2018-09-28T16:53:04.446Z,60.60
2018-09-28T16:55:31.418Z,61.29
2018-09-28T16:57:58.381Z,61.52
2018-09-28T17:00:25.325Z,61.87
2018-09-28T17:02:52.355Z,62.28
2018-09-28T17:05:19.310Z,63.30
2018-09-28T17:07:46.262Z,63.40
2018-09-28T17:10:13.239Z,63.30
2018-09-28T17:12:40.252Z,63.70
2018-09-28T17:15:07.233Z,64.20
2018-09-28T17:17:34.181Z,64.71
2018-09-28T17:20:01.122Z,65.09
2018-09-28T17:25:08.492Z,65.52
2018-09-28T17:27:35.505Z,65.95
2018-09-28T17:30:02.705Z,65.82
2018-09-28T17:32:29.650Z,66.26
2018-09-28T17:34:56.589Z,65.88
2018-09-28T17:37:23.590Z,66.82
2018-09-28T17:39:50.534Z,67.06
2018-09-28T17:42:17.493Z,67.17
2018-09-28T17:44:44.421Z,68.22
2018-09-28T17:47:11.373Z,68.08
2018-09-28T17:49:38.332Z,67.81
2018-09-28T17:52:05.552Z,68.01
2018-09-28T17:54:32.485Z,68.48
2018-09-28T17:56:59.729Z,69.12
2018-09-28T17:59:26.715Z,69.36
2018-09-28T18:01:53.695Z,70.39
2018-09-28T18:04:20.629Z,69.64
2018-09-28T18:06:47.762Z,70.47
2018-09-28T18:09:14.745Z,70.44
2018-09-28T18:11:41.690Z,70.95
2018-09-28T18:14:09.285Z,71.31
2018-09-28T18:16:38.017Z,71.15
2018-09-28T18:19:05.971Z,71.71
2018-09-28T18:21:33.240Z,71.89
2018-09-28T18:24:00.571Z,72.36
2018-09-28T18:26:27.610Z,72.11
2018-09-28T18:28:54.616Z,72.53
2018-09-28T18:31:21.893Z,73.07
2018-09-28T18:33:49.078Z,73.24
2018-09-28T18:36:16.628Z,72.47
2018-09-28T18:38:43.752Z,72.35
2018-09-28T18:41:10.858Z,72.44
2018-09-28T18:43:37.805Z,71.94
2018-09-28T18:46:05.120Z,71.58
2018-09-28T18:48:32.370Z,71.59
2018-09-28T18:50:59.443Z,71.43
2018-09-28T18:53:26.421Z,71.27
2018-09-28T18:55:53.377Z,71.43
2018-09-28T18:58:21.258Z,72.11
2018-09-28T19:00:48.976Z,72.62
2018-09-28T19:03:16.662Z,72.12
2018-09-28T19:05:43.728Z,72.85
2018-09-28T19:08:11.363Z,73.52
2018-09-28T19:10:38.922Z,72.96
2018-09-28T19:13:05.960Z,73.93
2018-09-28T19:15:32.915Z,74.62
2018-09-28T19:17:59.994Z,74.85
2018-09-28T19:20:27.104Z,74.88
2018-09-28T19:22:54.114Z,75.69
2018-09-28T19:25:22.080Z,75.22
2018-09-28T19:27:49.034Z,76.24
2018-09-28T19:30:16.024Z,75.80
2018-09-28T19:32:42.985Z,75.97
2018-09-28T19:35:10.133Z,76.66
2018-09-28T19:37:37.329Z,76.87
2018-09-28T19:40:04.317Z,77.18
2018-09-28T19:42:31.824Z,76.47
2018-09-28T19:44:58.830Z,76.52
2018-09-28T19:47:26.446Z,77.27
2018-09-28T19:49:53.514Z,77.97
2018-09-28T19:52:21.034Z,77.95
2018-09-28T19:54:48.244Z,77.96
2018-09-28T19:57:15.306Z,78.38
2018-09-28T19:59:42.284Z,77.66
2018-09-28T20:02:09.266Z,78.40
2018-09-28T20:04:36.254Z,78.58
2018-09-28T20:07:03.291Z,78.99
2018-09-28T20:09:30.371Z,79.06
2018-09-28T20:11:57.962Z,78.41
2018-09-28T20:14:24.942Z,78.50
2018-09-28T20:16:52.027Z,78.87
2018-09-28T20:19:19.050Z,79.07
2018-09-28T20:21:46.180Z,79.00
2018-09-28T20:24:13.463Z,78.74
2018-09-28T20:26:40.473Z,79.68
2018-09-28T20:29:07.506Z,78.89
2018-09-28T20:31:34.523Z,79.53
2018-09-28T20:34:01.625Z,79.74
2018-09-28T20:36:28.934Z,79.66
2018-09-28T20:38:55.929Z,79.67
2018-09-28T20:41:22.998Z,79.89
2018-09-28T20:43:49.977Z,79.72
2018-09-28T20:46:16.950Z,79.28
2018-09-28T20:48:44.008Z,80.07
2018-09-28T20:51:11.108Z,79.67
2018-09-28T20:53:38.098Z,79.77
2018-09-28T20:56:05.550Z,79.68
2018-09-28T20:58:32.697Z,79.62
2018-09-28T21:00:59.735Z,79.55
2018-09-28T21:03:27.090Z,78.44
2018-09-28T21:05:54.129Z,79.26
2018-09-28T21:08:26.934Z,79.37
2018-09-28T21:10:53.901Z,79.63
2018-09-28T21:13:20.921Z,79.55
2018-09-28T21:15:47.885Z,79.95
2018-09-28T21:18:14.857Z,80.17
2018-09-28T21:20:41.836Z,79.38
2018-09-28T21:23:08.913Z,80.20
2018-09-28T21:25:35.866Z,80.17
2018-09-28T21:28:02.808Z,79.30
2018-09-28T21:30:29.770Z,80.11
2018-09-28T21:32:56.867Z,80.48
2018-09-28T21:35:23.924Z,80.56
2018-09-28T21:37:50.897Z,80.33
2018-09-28T21:40:18.017Z,80.58
2018-09-28T21:42:45.391Z,79.95
2018-09-28T21:45:12.549Z,81.05
2018-09-28T21:47:39.482Z,80.66
2018-09-28T21:50:06.956Z,80.28
2018-09-28T21:52:33.905Z,80.38
2018-09-28T21:55:00.870Z,80.61
2018-09-28T21:57:27.857Z,80.81
2018-09-28T21:59:54.817Z,79.38
2018-09-28T22:02:21.764Z,78.97
2018-09-28T22:04:48.766Z,79.74
2018-09-28T22:07:15.746Z,80.06
2018-09-28T22:09:43.041Z,79.47
2018-09-28T22:12:10.299Z,79.33
2018-09-28T22:14:37.258Z,80.48
2018-09-28T22:17:04.233Z,80.89
2018-09-28T22:19:31.182Z,81.21
2018-09-28T22:21:58.126Z,80.88
2018-09-28T22:24:25.087Z,80.41
2018-09-28T22:26:52.062Z,80.50
2018-09-28T22:29:19.034Z,80.74
2018-09-28T22:31:45.997Z,80.48
2018-09-28T22:34:12.960Z,80.67
2018-09-28T22:36:39.941Z,80.69
2018-09-28T22:39:07.981Z,80.47
2018-09-28T22:41:34.947Z,80.37
2018-09-28T22:44:01.909Z,81.05
2018-09-28T22:46:28.882Z,81.09
2018-09-28T22:48:55.820Z,81.39
2018-09-28T22:51:22.782Z,81.81
2018-09-28T22:53:49.721Z,80.67
2018-09-28T22:56:16.674Z,81.71
2018-09-28T22:58:43.610Z,81.19
2018-09-28T23:01:10.563Z,80.51
2018-09-28T23:03:37.521Z,81.00
2018-09-28T23:06:04.482Z,81.66
2018-09-28T23:08:31.453Z,81.29
2018-09-28T23:10:58.405Z,81.48
2018-09-28T23:13:25.357Z,80.95
2018-09-28T23:15:52.385Z,82.18
2018-09-28T23:18:19.367Z,81.36
2018-09-28T23:20:46.349Z,82.74
2018-09-28T23:23:13.325Z,81.85
2018-09-28T23:25:40.305Z,82.25
2018-09-28T23:28:07.246Z,82.53
2018-09-28T23:30:34.226Z,83.59
2018-09-28T23:33:01.190Z,82.58
2018-09-28T23:35:28.174Z,83.37
2018-09-28T23:37:55.139Z,83.92
2018-09-28T23:40:22.129Z,84.42
2018-09-28T23:42:49.085Z,83.42
2018-09-28T23:45:16.061Z,82.20
2018-09-28T23:47:43.132Z,82.85
2018-09-28T23:50:10.296Z,82.85
2018-09-28T23:52:37.266Z,82.92
2018-09-28T23:55:04.286Z,82.85
2018-09-28T23:57:31.262Z,82.79
2018-09-28T23:59:58.215Z,83.68
